createdAt,value
2019-06-26T00:02:25.035Z,20.40
2019-06-26T00:04:54.124Z,20.50
2019-06-26T00:07:23.238Z,20.50
2019-06-26T00:09:52.274Z,20.40
2019-06-26T00:12:21.466Z,20.40
2019-06-26T00:14:50.503Z,20.40
2019-06-26T00:17:19.588Z,20.40
2019-06-26T00:20:01.959Z,20.40
2019-06-26T00:22:31.619Z,20.50
2019-06-26T00:25:00.682Z,20.40
2019-06-26T00:27:29.818Z,20.40
2019-06-26T00:29:59.109Z,20.40
2019-06-26T00:32:28.109Z,20.40
2019-06-26T00:34:57.093Z,20.40
2019-06-26T00:37:26.112Z,20.40
2019-06-26T00:39:55.150Z,20.30
2019-06-26T00:42:24.247Z,20.20
2019-06-26T00:44:53.228Z,20.20
2019-06-26T00:47:23.455Z,20.20
2019-06-26T00:49:52.517Z,20.30
2019-06-26T00:52:21.578Z,20.30
2019-06-26T00:54:50.564Z,20.30
2019-06-26T00:57:19.745Z,20.30
2019-06-26T00:59:48.758Z,20.20
2019-06-26T01:02:17.966Z,20.30
2019-06-26T01:04:48.661Z,20.30
2019-06-26T01:07:17.757Z,20.30
2019-06-26T01:09:46.878Z,20.20
2019-06-26T01:12:15.870Z,20.20
2019-06-26T01:14:44.898Z,20.20
2019-06-26T01:17:13.967Z,20.20
2019-06-26T01:19:43.014Z,20.30
2019-06-26T01:22:12.074Z,20.30
2019-06-26T01:24:41.146Z,20.30
2019-06-26T01:27:10.175Z,20.30
2019-06-26T01:29:39.214Z,20.30
2019-06-26T01:32:08.209Z,20.40
2019-06-26T01:34:37.157Z,20.40
2019-06-26T01:37:06.310Z,20.30
2019-06-26T01:39:35.364Z,20.40
2019-06-26T01:42:04.426Z,20.40
2019-06-26T01:44:33.400Z,20.50
2019-06-26T01:47:02.465Z,20.40
2019-06-26T01:49:31.534Z,20.40
2019-06-26T01:52:00.541Z,20.40
2019-06-26T01:54:29.533Z,20.40
2019-06-26T01:56:58.704Z,20.40
2019-06-26T01:59:27.749Z,20.40
2019-06-26T02:01:56.938Z,20.40
2019-06-26T02:04:26.063Z,20.30
2019-06-26T02:06:55.133Z,20.30
2019-06-26T02:09:24.191Z,20.20
2019-06-26T02:11:53.212Z,20.20
2019-06-26T02:14:31.196Z,20.20
2019-06-26T02:16:53.093Z,20.20
2019-06-26T02:19:22.266Z,20.10
2019-06-26T02:21:51.359Z,20.10
2019-06-26T02:24:20.469Z,20.10
2019-06-26T02:26:49.526Z,20.00
2019-06-26T02:29:18.733Z,19.90
2019-06-26T02:31:47.721Z,19.90
2019-06-26T02:34:16.861Z,20.00
2019-06-26T02:36:45.931Z,20.00
2019-06-26T02:39:14.946Z,19.90
2019-06-26T02:41:44.061Z,20.00
2019-06-26T02:44:13.106Z,20.00
2019-06-26T02:46:42.242Z,19.90
2019-06-26T02:49:11.261Z,20.00
2019-06-26T02:51:40.267Z,20.00
2019-06-26T02:54:09.358Z,20.00
2019-06-26T02:56:38.306Z,20.00
2019-06-26T02:59:07.366Z,19.90
2019-06-26T03:01:36.531Z,19.90
2019-06-26T03:04:05.640Z,20.00
2019-06-26T03:06:34.782Z,19.90
2019-06-26T03:09:05.270Z,19.90
2019-06-26T03:11:34.332Z,19.90
2019-06-26T03:14:03.393Z,19.90
2019-06-26T03:16:32.525Z,19.90
2019-06-26T03:19:01.615Z,19.80
2019-06-26T03:21:30.730Z,19.90
2019-06-26T03:23:59.812Z,19.80
2019-06-26T03:26:29.140Z,19.70
2019-06-26T03:28:58.196Z,19.60
2019-06-26T03:31:27.450Z,19.50
2019-06-26T03:34:05.794Z,19.50
2019-06-26T03:36:47.372Z,19.60
2019-06-26T03:39:17.140Z,19.60
2019-06-26T03:41:46.222Z,19.60
2019-06-26T03:44:15.199Z,19.60
2019-06-26T03:46:44.299Z,19.70
2019-06-26T03:49:13.498Z,19.70
2019-06-26T03:51:42.443Z,19.70
2019-06-26T03:54:11.358Z,19.40
2019-06-26T03:56:40.361Z,19.30
2019-06-26T03:59:09.289Z,19.30
2019-06-26T04:01:38.209Z,19.20
2019-06-26T04:04:07.101Z,19.30
2019-06-26T04:06:36.225Z,19.30
2019-06-26T04:09:06.171Z,19.20
2019-06-26T04:11:35.117Z,19.10
2019-06-26T04:14:04.165Z,19.00
2019-06-26T04:16:33.194Z,19.10
2019-06-26T04:19:04.097Z,19.10
2019-06-26T04:21:32.969Z,19.10
2019-06-26T04:24:01.992Z,19.10
2019-06-26T04:26:31.009Z,19.20
2019-06-26T04:28:59.912Z,19.20
2019-06-26T04:31:28.894Z,19.20
2019-06-26T04:33:57.840Z,19.10
2019-06-26T04:36:26.954Z,19.20
2019-06-26T04:38:55.905Z,19.20
2019-06-26T04:41:24.856Z,19.20
2019-06-26T04:43:53.866Z,19.10
2019-06-26T04:46:22.910Z,19.10
2019-06-26T04:48:51.782Z,19.00
2019-06-26T04:51:20.740Z,19.00
2019-06-26T04:53:49.730Z,19.00
2019-06-26T04:56:18.684Z,18.90
2019-06-26T04:58:47.653Z,18.90
2019-06-26T05:01:16.677Z,18.80
2019-06-26T05:03:45.661Z,19.00
2019-06-26T05:06:14.611Z,19.00
2019-06-26T05:08:43.852Z,19.00
2019-06-26T05:11:13.112Z,19.00
2019-06-26T05:13:42.214Z,19.00
2019-06-26T05:16:15.848Z,19.00
2019-06-26T05:18:41.669Z,19.00
2019-06-26T05:21:10.765Z,18.90
2019-06-26T05:23:40.120Z,18.80
2019-06-26T05:26:09.225Z,18.90
2019-06-26T05:28:38.291Z,18.90
2019-06-26T05:31:09.646Z,18.90
2019-06-26T05:33:38.801Z,18.90
2019-06-26T05:36:07.948Z,19.00
2019-06-26T05:38:37.064Z,19.00
2019-06-26T05:41:06.162Z,19.10
2019-06-26T05:43:35.327Z,19.20
2019-06-26T05:46:04.382Z,19.10
2019-06-26T05:48:33.385Z,19.10
2019-06-26T05:51:02.601Z,19.00
2019-06-26T05:53:31.674Z,19.00
2019-06-26T05:56:00.789Z,19.00
2019-06-26T05:58:29.990Z,19.00
2019-06-26T06:00:58.969Z,19.00
2019-06-26T06:03:28.156Z,19.00
2019-06-26T06:05:57.129Z,18.90
2019-06-26T06:08:26.175Z,18.90
2019-06-26T06:10:58.103Z,19.00
2019-06-26T06:13:26.059Z,19.00
2019-06-26T06:15:55.093Z,19.00
2019-06-26T06:18:30.197Z,19.10
2019-06-26T06:20:59.256Z,19.10
2019-06-26T06:23:28.429Z,19.20
2019-06-26T06:25:57.579Z,19.20
2019-06-26T06:28:26.518Z,19.30
2019-06-26T06:30:55.591Z,19.20
2019-06-26T06:33:24.610Z,19.20
2019-06-26T06:35:53.535Z,19.20
2019-06-26T06:38:22.567Z,19.10
2019-06-26T06:40:51.623Z,19.10
2019-06-26T06:43:20.593Z,19.20
2019-06-26T06:45:49.667Z,19.20
2019-06-26T06:48:18.774Z,19.30
2019-06-26T06:50:47.761Z,19.30
2019-06-26T06:53:16.794Z,19.40
2019-06-26T06:55:45.821Z,19.40
2019-06-26T06:58:14.742Z,19.50
2019-06-26T07:00:43.998Z,19.60
2019-06-26T07:03:13.041Z,19.60
2019-06-26T07:05:42.030Z,19.60
2019-06-26T07:08:11.004Z,19.50
2019-06-26T07:10:40.156Z,19.50
2019-06-26T07:13:09.207Z,19.50
2019-06-26T07:15:38.311Z,19.60
2019-06-26T07:18:07.332Z,19.60
2019-06-26T07:20:36.358Z,19.70
2019-06-26T07:23:05.544Z,19.80
2019-06-26T07:25:34.388Z,19.60
2019-06-26T07:28:03.463Z,19.70
2019-06-26T07:30:32.562Z,19.70
2019-06-26T07:33:01.682Z,19.60
2019-06-26T07:35:30.578Z,19.70
2019-06-26T07:38:00.359Z,19.70
2019-06-26T07:40:29.514Z,19.70
2019-06-26T07:43:01.736Z,19.70
2019-06-26T07:45:30.770Z,19.70
2019-06-26T07:47:59.789Z,19.70
2019-06-26T07:50:32.245Z,19.70
2019-06-26T07:52:59.612Z,19.80
2019-06-26T07:55:28.620Z,19.60
2019-06-26T07:57:57.741Z,19.60
2019-06-26T08:00:26.887Z,19.70
2019-06-26T08:02:55.967Z,19.70
2019-06-26T08:05:24.929Z,19.80
2019-06-26T08:07:53.931Z,19.80
2019-06-26T08:10:23.025Z,19.70
2019-06-26T08:12:52.018Z,19.70
2019-06-26T08:15:21.178Z,19.80
2019-06-26T08:17:59.964Z,19.70
2019-06-26T08:20:21.020Z,19.70
2019-06-26T08:22:50.097Z,19.80
2019-06-26T08:25:19.171Z,19.70
2019-06-26T08:27:48.313Z,19.80
2019-06-26T08:30:20.215Z,19.80
2019-06-26T08:32:49.283Z,19.40
2019-06-26T08:35:30.093Z,19.30
2019-06-26T08:38:09.402Z,19.20
2019-06-26T08:40:29.971Z,19.00
2019-06-26T08:42:59.056Z,18.90
2019-06-26T08:45:28.335Z,19.00
2019-06-26T08:48:13.456Z,18.90
2019-06-26T08:50:30.865Z,18.90
2019-06-26T08:53:00.095Z,18.90
2019-06-26T08:55:29.227Z,19.00
2019-06-26T08:57:58.241Z,19.10
2019-06-26T09:00:27.343Z,19.00
2019-06-26T09:02:56.321Z,18.90
2019-06-26T09:05:25.407Z,19.00
2019-06-26T09:07:54.466Z,19.10
2019-06-26T09:10:23.580Z,19.10
2019-06-26T09:12:52.459Z,19.20
2019-06-26T09:15:21.400Z,19.10
2019-06-26T09:17:50.356Z,19.20
2019-06-26T09:20:26.476Z,19.20
2019-06-26T09:22:55.456Z,19.20
2019-06-26T09:25:24.468Z,19.30
2019-06-26T09:27:59.010Z,19.30
2019-06-26T09:30:28.108Z,19.20
2019-06-26T09:33:00.168Z,19.30
2019-06-26T09:35:29.401Z,19.30
2019-06-26T09:37:58.482Z,19.40
2019-06-26T09:40:30.782Z,19.50
2019-06-26T09:42:58.269Z,19.50
2019-06-26T09:45:27.363Z,19.50
2019-06-26T09:47:56.567Z,19.40
2019-06-26T09:50:25.662Z,19.30
2019-06-26T09:52:54.615Z,19.30
2019-06-26T09:55:23.724Z,19.30
2019-06-26T09:57:52.713Z,19.50
2019-06-26T10:00:22.307Z,19.40
2019-06-26T10:02:51.470Z,19.50
2019-06-26T10:05:20.595Z,19.60
2019-06-26T10:07:49.657Z,19.80
2019-06-26T10:10:18.708Z,19.80
2019-06-26T10:12:47.764Z,19.70
2019-06-26T10:15:17.171Z,19.80
2019-06-26T10:17:46.337Z,19.80
2019-06-26T10:20:15.512Z,20.00
2019-06-26T10:22:51.172Z,19.90
2019-06-26T10:25:20.454Z,19.80
2019-06-26T10:27:49.497Z,19.90
2019-06-26T10:30:18.947Z,19.90
2019-06-26T10:32:47.962Z,20.00
2019-06-26T10:35:17.682Z,20.10
2019-06-26T10:37:46.662Z,20.20
2019-06-26T10:40:16.632Z,20.30
2019-06-26T10:42:46.002Z,20.40
2019-06-26T10:45:15.498Z,20.30
2019-06-26T10:47:44.631Z,20.40
2019-06-26T10:50:14.629Z,20.30
2019-06-26T10:52:43.713Z,20.50
2019-06-26T10:55:13.044Z,20.40
2019-06-26T10:57:42.097Z,20.50
2019-06-26T11:00:11.657Z,20.70
2019-06-26T11:02:40.702Z,20.70
2019-06-26T11:05:10.373Z,20.70
2019-06-26T11:07:39.417Z,20.90
2019-06-26T11:10:09.830Z,21.00
2019-06-26T11:12:39.336Z,21.00
2019-06-26T11:15:09.031Z,21.00
2019-06-26T11:17:37.981Z,20.90
2019-06-26T11:20:07.712Z,20.90
2019-06-26T11:22:37.029Z,21.00
2019-06-26T11:25:07.219Z,21.00
2019-06-26T11:27:36.305Z,21.10
2019-06-26T11:31:18.766Z,21.10
2019-06-26T11:34:10.791Z,21.20
2019-06-26T11:36:39.763Z,21.40
2019-06-26T11:39:09.057Z,21.60
2019-06-26T11:41:38.039Z,21.60
2019-06-26T11:44:07.098Z,21.50
2019-06-26T11:46:59.057Z,21.70
2019-06-26T11:49:28.113Z,21.90
2019-06-26T11:51:57.117Z,22.00
2019-06-26T11:54:26.104Z,22.20
2019-06-26T11:56:55.094Z,22.30
2019-06-26T11:59:24.064Z,22.30
2019-06-26T12:01:53.129Z,22.40
2019-06-26T12:04:22.308Z,22.30
2019-06-26T12:06:51.325Z,22.50
2019-06-26T12:09:20.370Z,22.20
2019-06-26T12:11:49.351Z,22.20
2019-06-26T12:14:18.416Z,22.40
2019-06-26T12:16:47.706Z,22.60
2019-06-26T12:19:19.898Z,22.90
2019-06-26T12:21:47.775Z,22.90
2019-06-26T12:24:16.976Z,23.20
2019-06-26T14:50:56.823Z,24.60
2019-06-26T14:53:25.898Z,24.50
2019-06-26T15:24:46.896Z,24.10
2019-06-26T15:27:15.894Z,24.10
2019-06-26T15:29:44.812Z,24.20
2019-06-26T15:32:13.729Z,24.30
2019-06-26T15:34:42.578Z,24.10
2019-06-26T15:37:11.601Z,23.80
2019-06-26T15:39:40.445Z,23.70
2019-06-26T15:42:09.280Z,23.70
2019-06-26T15:44:38.194Z,23.40
2019-06-26T15:47:07.328Z,23.40
2019-06-26T15:49:36.569Z,23.20
2019-06-26T15:52:15.087Z,23.10
2019-06-26T15:54:36.193Z,23.20
2019-06-26T15:57:05.238Z,23.10
2019-06-26T15:59:34.168Z,23.00
2019-06-26T16:02:03.077Z,23.00
2019-06-26T16:04:35.039Z,23.00
2019-06-26T16:07:02.698Z,22.80
2019-06-26T16:09:31.633Z,22.80
2019-06-26T16:12:00.628Z,22.70
2019-06-26T16:14:29.502Z,22.60
2019-06-26T16:17:01.071Z,22.30
2019-06-26T16:19:29.974Z,22.30
2019-06-26T16:21:58.917Z,22.20
2019-06-26T16:24:30.167Z,22.20
2019-06-26T16:26:58.602Z,22.30
2019-06-26T16:29:27.461Z,22.30
2019-06-26T16:31:56.451Z,22.30
2019-06-26T16:34:25.405Z,22.30
2019-06-26T16:36:54.276Z,22.30
2019-06-26T16:39:23.749Z,22.30
2019-06-26T16:41:52.650Z,22.40
2019-06-26T16:44:22.123Z,22.10
2019-06-26T16:46:51.130Z,22.00
2019-06-26T16:49:20.153Z,22.00
2019-06-26T16:51:49.060Z,21.80
2019-06-26T16:54:17.905Z,21.60
2019-06-26T16:56:46.814Z,21.60
2019-06-26T16:59:15.663Z,21.60
2019-06-26T17:01:44.699Z,21.50
2019-06-26T17:04:13.561Z,21.30
2019-06-26T17:06:42.484Z,21.40
2019-06-26T17:09:11.364Z,21.40
2019-06-26T17:11:40.288Z,21.50
2019-06-26T17:14:09.309Z,21.50
2019-06-26T17:16:38.334Z,21.40
2019-06-26T17:19:07.316Z,21.40
2019-06-26T17:21:36.427Z,21.30
2019-06-26T17:24:05.540Z,21.30
2019-06-26T17:26:34.600Z,21.30
2019-06-26T17:29:03.453Z,21.40
2019-06-26T17:31:32.395Z,21.40
2019-06-26T17:34:01.345Z,21.30
2019-06-26T17:36:30.289Z,21.30
2019-06-26T17:38:59.460Z,21.20
2019-06-26T17:41:28.361Z,21.20
2019-06-26T17:43:57.457Z,21.20
2019-06-26T17:46:26.450Z,21.20
2019-06-26T17:48:55.384Z,21.00
2019-06-26T17:51:24.257Z,21.00
2019-06-26T17:53:53.176Z,21.00
2019-06-26T17:56:22.103Z,20.90
2019-06-26T17:58:51.057Z,20.90
2019-06-26T18:01:19.984Z,20.80
2019-06-26T18:03:48.986Z,20.90
2019-06-26T18:06:18.043Z,20.70
2019-06-26T18:08:47.009Z,20.80
2019-06-26T18:11:16.039Z,20.70
2019-06-26T18:13:44.913Z,20.50
2019-06-26T18:16:13.753Z,20.40
2019-06-26T18:18:42.705Z,20.30
2019-06-26T18:21:11.616Z,20.30
2019-06-26T18:23:40.552Z,20.30
2019-06-26T18:26:13.340Z,20.20
2019-06-26T18:28:40.114Z,20.20
2019-06-26T18:34:11.422Z,20.20
2019-06-26T18:36:40.769Z,20.20
2019-06-26T18:39:09.889Z,20.30
2019-06-26T18:41:39.028Z,20.20
2019-06-26T18:44:07.965Z,20.20
2019-06-26T18:46:36.973Z,20.20
2019-06-26T18:49:05.906Z,20.30
2019-06-26T18:56:32.675Z,20.20
2019-06-26T18:59:01.877Z,20.20
2019-06-26T19:01:30.857Z,20.20
2019-06-26T19:03:59.809Z,20.20
2019-06-26T19:06:28.794Z,20.20
2019-06-26T19:08:57.768Z,20.20
2019-06-26T19:11:26.809Z,20.10
2019-06-26T19:13:55.661Z,20.10
2019-06-26T19:16:24.679Z,20.10
2019-06-26T19:18:53.673Z,20.00
2019-06-26T19:21:22.820Z,20.00
2019-06-26T19:23:52.111Z,20.00
2019-06-26T19:26:21.025Z,20.00
2019-06-26T19:28:50.027Z,20.00
2019-06-26T19:31:19.093Z,20.10
2019-06-26T19:33:47.952Z,20.00
2019-06-26T19:36:17.017Z,20.00
2019-06-26T19:38:46.040Z,20.00
2019-06-26T19:41:15.048Z,19.90
2019-06-26T19:43:44.077Z,19.90
2019-06-26T19:46:13.200Z,19.70
2019-06-26T19:48:42.225Z,19.70
2019-06-26T19:51:11.265Z,19.60
2019-06-26T19:53:40.386Z,19.60
2019-06-26T19:56:09.327Z,19.60
2019-06-26T19:58:38.345Z,19.50
2019-06-26T20:01:07.434Z,19.50
2019-06-26T20:03:36.474Z,19.40
2019-06-26T20:06:05.581Z,19.40
2019-06-26T20:08:34.654Z,19.40
2019-06-26T20:11:03.657Z,19.30
2019-06-26T20:13:32.606Z,19.30
2019-06-26T20:16:01.504Z,19.20
2019-06-26T20:18:30.357Z,19.10
2019-06-26T20:20:59.297Z,19.10
2019-06-26T20:23:28.240Z,19.00
2019-06-26T20:25:57.282Z,19.00
2019-06-26T20:28:26.171Z,19.00
2019-06-26T20:30:55.127Z,18.90
2019-06-26T20:33:23.991Z,18.80
2019-06-26T20:35:53.000Z,18.70
2019-06-26T20:38:21.980Z,18.70
2019-06-26T20:40:51.000Z,18.70
2019-06-26T20:43:22.006Z,18.60
2019-06-26T20:45:52.553Z,18.60
2019-06-26T20:48:21.422Z,18.60
2019-06-26T20:50:50.387Z,18.70
2019-06-26T20:53:19.381Z,18.70
2019-06-26T20:55:48.234Z,18.60
2019-06-26T20:58:17.124Z,18.60
2019-06-26T21:00:46.127Z,18.50
2019-06-26T21:03:15.049Z,18.40
2019-06-26T21:05:43.938Z,18.40
2019-06-26T21:08:12.781Z,18.30
2019-06-26T21:10:41.837Z,18.30
2019-06-26T21:13:10.713Z,18.30
2019-06-26T21:15:39.673Z,18.20
2019-06-26T21:18:08.753Z,18.20
2019-06-26T21:20:56.877Z,18.10
2019-06-26T21:23:26.405Z,18.10
2019-06-26T21:25:55.259Z,18.10
2019-06-26T21:28:24.222Z,18.10
2019-06-26T21:30:53.162Z,18.00
2019-06-26T21:33:22.013Z,18.00
2019-06-26T21:35:50.970Z,18.00
2019-06-26T21:38:19.836Z,18.00
2019-06-26T21:40:48.786Z,18.00
2019-06-26T21:43:17.666Z,18.00
2019-06-26T21:45:46.538Z,17.90
2019-06-26T21:48:15.385Z,17.90
2019-06-26T21:50:44.342Z,17.90
2019-06-26T21:53:13.261Z,17.90
2019-06-26T21:55:42.157Z,17.80
2019-06-26T21:58:11.185Z,17.90
2019-06-26T22:00:40.131Z,17.80
2019-06-26T22:03:09.271Z,17.80
2019-06-26T22:05:38.240Z,17.80
2019-06-26T22:08:17.373Z,17.80
2019-06-26T22:10:46.528Z,17.80
2019-06-26T22:13:15.579Z,17.80
2019-06-26T22:15:44.582Z,17.80
2019-06-26T22:18:13.533Z,17.90
2019-06-26T22:20:42.514Z,17.90
2019-06-26T22:23:11.434Z,17.90
2019-06-26T22:25:50.419Z,17.90
2019-06-26T22:28:11.293Z,17.80
2019-06-26T22:30:40.241Z,17.70
2019-06-26T22:33:10.284Z,17.70
2019-06-26T22:35:39.217Z,17.70
2019-06-26T22:38:08.307Z,17.70
2019-06-26T22:40:37.265Z,17.70
2019-06-26T22:43:06.210Z,17.70
2019-06-26T22:45:35.370Z,17.70
2019-06-26T22:48:04.393Z,17.60
2019-06-26T22:50:33.421Z,17.70
2019-06-26T22:53:02.351Z,17.60
2019-06-26T22:55:31.310Z,17.60
2019-06-26T22:58:00.309Z,17.60
2019-06-26T23:00:29.225Z,17.60
2019-06-26T23:02:58.180Z,17.50
2019-06-26T23:05:27.059Z,17.60
2019-06-26T23:07:55.984Z,17.60
2019-06-26T23:10:25.001Z,17.60
2019-06-26T23:12:53.933Z,17.60
2019-06-26T23:15:22.970Z,17.60
2019-06-26T23:17:51.885Z,17.60
2019-06-26T23:20:20.880Z,17.60
2019-06-26T23:22:49.859Z,17.50
2019-06-26T23:25:18.849Z,17.50
2019-06-26T23:27:47.876Z,17.50
2019-06-26T23:30:21.029Z,17.50
2019-06-26T23:32:49.913Z,17.40
2019-06-26T23:35:18.937Z,17.40
2019-06-26T23:37:47.927Z,17.40
2019-06-26T23:40:17.170Z,17.40
2019-06-26T23:42:46.126Z,17.40
2019-06-26T23:45:15.372Z,17.40
2019-06-26T23:47:44.533Z,17.40
2019-06-26T23:50:13.641Z,17.40
2019-06-26T23:52:42.574Z,17.50
2019-06-26T23:55:11.517Z,17.40
2019-06-26T23:57:57.704Z,17.40
